createdAt,value
2023-08-19T00:01:30.529Z,63.66
2023-08-19T00:04:03.049Z,63.63
2023-08-19T00:06:40.708Z,63.46
2023-08-19T00:09:13.239Z,63.42
2023-08-19T00:11:45.862Z,63.41
2023-08-19T00:14:19.431Z,63.16
2023-08-19T00:16:51.899Z,63.56
2023-08-19T00:19:24.412Z,63.26
2023-08-19T00:21:56.886Z,63.27
2023-08-19T00:24:29.343Z,63.63
2023-08-19T00:27:03.041Z,63.41
2023-08-19T00:29:35.765Z,63.81
2023-08-19T00:32:08.325Z,64.27
2023-08-19T00:34:40.857Z,63.81
2023-08-19T00:37:13.299Z,64.13
2023-08-19T00:39:45.729Z,63.88
2023-08-19T00:42:18.206Z,64.29
2023-08-19T00:44:50.725Z,63.91
2023-08-19T00:47:24.367Z,63.56
2023-08-19T00:49:57.263Z,63.36
2023-08-19T00:52:29.730Z,63.60
2023-08-19T00:55:03.403Z,63.69
2023-08-19T00:57:38.080Z,64.15
2023-08-19T01:00:11.138Z,64.23
2023-08-19T01:02:43.767Z,64.55
2023-08-19T01:05:16.355Z,64.32
2023-08-19T01:08:01.099Z,64.75
2023-08-19T01:10:39.682Z,64.75
2023-08-19T01:13:14.327Z,64.24
2023-08-19T01:15:55.024Z,64.46
2023-08-19T01:18:28.050Z,64.29
2023-08-19T01:21:02.526Z,64.40
2023-08-19T01:23:39.213Z,64.21
2023-08-19T01:26:12.014Z,64.30
2023-08-19T01:28:44.557Z,64.19
2023-08-19T01:31:16.997Z,64.20
2023-08-19T01:33:49.693Z,63.95
2023-08-19T01:36:35.956Z,63.73
2023-08-19T01:39:10.079Z,63.55
2023-08-19T01:41:43.061Z,63.18
2023-08-19T01:44:16.109Z,63.29
2023-08-19T01:46:48.643Z,63.25
2023-08-19T01:49:23.319Z,62.59
2023-08-19T01:51:56.192Z,62.63
2023-08-19T01:54:28.678Z,62.32
2023-08-19T01:57:01.086Z,62.46
2023-08-19T01:59:34.341Z,62.17
2023-08-19T02:02:06.788Z,61.58
2023-08-19T02:04:39.336Z,61.67
2023-08-19T02:07:11.869Z,61.89
2023-08-19T02:09:46.759Z,61.91
2023-08-19T02:12:19.202Z,61.87
2023-08-19T02:14:51.720Z,61.88
2023-08-19T02:17:24.370Z,61.56
2023-08-19T02:19:56.839Z,61.47
2023-08-19T02:22:29.362Z,61.41
2023-08-19T02:25:02.122Z,61.55
2023-08-19T02:27:34.962Z,61.07
2023-08-19T02:30:08.228Z,61.36
2023-08-19T02:32:41.947Z,61.19
2023-08-19T02:35:14.933Z,61.42
2023-08-19T02:37:47.448Z,61.04
2023-08-19T02:40:19.881Z,61.09
2023-08-19T02:42:52.331Z,61.30
2023-08-19T02:45:25.663Z,61.44
2023-08-19T02:47:58.178Z,61.41
2023-08-19T02:50:30.681Z,61.78
2023-08-19T02:53:03.246Z,61.15
2023-08-19T02:55:40.846Z,60.95
2023-08-19T02:58:14.647Z,60.99
2023-08-19T03:00:50.175Z,61.30
2023-08-19T03:03:22.829Z,60.63
2023-08-19T03:06:00.197Z,60.85
2023-08-19T03:08:32.651Z,60.60
2023-08-19T03:11:05.830Z,60.08
2023-08-19T03:13:38.315Z,59.87
2023-08-19T03:16:10.793Z,60.01
2023-08-19T03:18:43.367Z,60.42
2023-08-19T03:21:15.841Z,60.47
2023-08-19T03:23:48.354Z,60.58
2023-08-19T03:26:20.910Z,60.27
2023-08-19T03:28:53.391Z,59.62
2023-08-19T03:31:26.327Z,59.73
2023-08-19T03:33:58.948Z,59.34
2023-08-19T03:36:31.472Z,59.66
2023-08-19T03:39:04.224Z,59.53
2023-08-19T03:41:36.835Z,59.61
2023-08-19T03:44:09.278Z,59.57
2023-08-19T03:46:43.012Z,59.29
2023-08-19T03:49:15.473Z,59.35
2023-08-19T03:51:47.950Z,59.54
2023-08-19T03:54:20.760Z,59.89
2023-08-19T03:56:53.418Z,59.95
2023-08-19T03:59:26.117Z,59.87
2023-08-19T04:01:58.554Z,59.48
2023-08-19T04:04:31.040Z,59.29
2023-08-19T04:07:03.762Z,59.28
2023-08-19T04:09:36.239Z,59.06
2023-08-19T04:12:08.967Z,59.34
2023-08-19T04:14:41.371Z,58.75
2023-08-19T04:17:13.822Z,59.12
2023-08-19T04:19:46.768Z,58.96
2023-08-19T04:22:19.830Z,58.27
2023-08-19T04:24:53.402Z,58.67
2023-08-19T04:27:25.960Z,58.80
2023-08-19T04:29:58.621Z,58.63
2023-08-19T04:32:31.834Z,59.14
2023-08-19T04:35:05.725Z,58.44
2023-08-19T04:37:38.195Z,58.60
2023-08-19T04:40:11.186Z,58.24
2023-08-19T04:42:43.702Z,58.01
2023-08-19T04:45:17.355Z,57.93
2023-08-19T04:47:50.677Z,57.94
2023-08-19T04:50:23.315Z,57.79
2023-08-19T04:52:55.822Z,57.85
2023-08-19T04:55:28.430Z,57.76
2023-08-19T04:58:00.889Z,57.84
2023-08-19T05:00:33.355Z,57.50
2023-08-19T05:03:05.764Z,57.19
2023-08-19T05:05:38.264Z,57.06
2023-08-19T05:08:10.716Z,57.44
2023-08-19T05:10:43.196Z,57.16
2023-08-19T05:13:15.623Z,56.58
2023-08-19T05:15:48.145Z,56.43
2023-08-19T05:18:20.641Z,56.84
2023-08-19T05:20:53.074Z,56.93
2023-08-19T05:23:25.547Z,56.39
2023-08-19T05:25:57.978Z,56.13
2023-08-19T05:28:30.486Z,55.29
2023-08-19T05:31:02.944Z,55.84
2023-08-19T05:33:35.388Z,55.81
2023-08-19T05:36:07.802Z,55.81
2023-08-19T05:38:40.299Z,55.63
2023-08-19T05:41:13.159Z,56.09
2023-08-19T05:43:46.086Z,55.96
2023-08-19T05:46:18.623Z,55.95
2023-08-19T05:48:51.191Z,56.04
2023-08-19T05:51:23.718Z,55.53
2023-08-19T05:54:02.383Z,55.11
2023-08-19T05:56:35.183Z,55.32
2023-08-19T05:59:07.622Z,55.29
2023-08-19T06:01:40.176Z,54.79
2023-08-19T06:04:12.900Z,54.91
2023-08-19T06:06:45.312Z,55.25
2023-08-19T06:09:17.824Z,55.08
2023-08-19T06:11:52.757Z,54.96
2023-08-19T06:14:25.352Z,54.79
2023-08-19T06:16:57.800Z,54.38
2023-08-19T06:19:30.266Z,54.42
2023-08-19T06:22:02.875Z,53.88
2023-08-19T06:24:35.325Z,53.88
2023-08-19T06:27:07.848Z,53.55
2023-08-19T06:29:41.165Z,53.98
2023-08-19T06:32:14.032Z,54.06
2023-08-19T06:34:46.843Z,53.32
2023-08-19T06:37:28.911Z,52.84
2023-08-19T06:40:10.608Z,52.71
2023-08-19T06:42:43.205Z,52.19
2023-08-19T06:45:17.916Z,52.76
2023-08-19T06:47:54.113Z,51.95
2023-08-19T06:50:28.518Z,51.45
2023-08-19T06:53:01.398Z,51.49
2023-08-19T06:55:34.609Z,50.80
2023-08-19T06:58:16.691Z,51.34
2023-08-19T07:00:53.061Z,51.03
2023-08-19T07:03:28.630Z,51.14
2023-08-19T07:06:02.385Z,51.95
2023-08-19T07:08:40.077Z,51.20
2023-08-19T07:11:12.936Z,51.20
2023-08-19T07:13:45.784Z,50.96
2023-08-19T07:16:22.024Z,51.54
2023-08-19T07:18:58.531Z,51.29
2023-08-19T07:21:34.006Z,50.76
2023-08-19T07:24:07.203Z,50.57
2023-08-19T07:26:40.278Z,49.95
2023-08-19T07:29:13.021Z,49.24
2023-08-19T07:31:48.322Z,48.76
2023-08-19T07:34:20.854Z,48.38
2023-08-19T07:36:53.332Z,47.77
2023-08-19T07:39:26.540Z,47.46
2023-08-19T07:41:59.046Z,47.58
2023-08-19T07:44:31.503Z,47.12
2023-08-19T07:47:04.159Z,47.56
2023-08-19T07:49:36.649Z,46.84
2023-08-19T07:52:09.288Z,47.53
2023-08-19T07:54:42.017Z,47.39
2023-08-19T07:57:14.519Z,47.17
2023-08-19T07:59:47.003Z,47.07
2023-08-19T08:02:19.499Z,46.83
2023-08-19T08:04:52.172Z,47.21
2023-08-19T08:07:24.989Z,46.90
2023-08-19T08:09:57.491Z,47.15
2023-08-19T08:12:31.492Z,46.84
2023-08-19T08:15:05.017Z,46.90
2023-08-19T08:17:37.486Z,46.67
2023-08-19T08:20:10.256Z,46.99
2023-08-19T08:22:42.716Z,46.66
2023-08-19T08:25:15.246Z,47.54
2023-08-19T08:27:47.735Z,47.23
2023-08-19T08:30:20.414Z,47.45
2023-08-19T08:32:53.039Z,47.97
2023-08-19T08:35:25.604Z,48.25
2023-08-19T08:37:58.189Z,49.05
2023-08-19T08:40:33.487Z,49.60
2023-08-19T08:43:07.130Z,49.38
2023-08-19T08:45:40.357Z,49.58
2023-08-19T08:48:15.038Z,49.58
2023-08-19T08:50:48.872Z,49.32
2023-08-19T08:53:21.827Z,49.27
2023-08-19T08:55:55.876Z,49.09
2023-08-19T08:58:28.515Z,49.33
2023-08-19T09:01:03.664Z,49.15
2023-08-19T09:03:40.605Z,49.14
2023-08-19T09:06:18.641Z,48.72
2023-08-19T09:09:03.316Z,48.68
2023-08-19T09:11:39.592Z,48.47
2023-08-19T09:14:35.968Z,47.99
2023-08-19T09:17:08.944Z,47.72
2023-08-19T09:19:41.986Z,47.64
2023-08-19T09:22:17.246Z,48.81
2023-08-19T09:24:50.342Z,48.21
2023-08-19T09:27:32.945Z,47.98
2023-08-19T09:30:06.192Z,47.66
2023-08-19T09:32:40.401Z,47.93
2023-08-19T09:35:13.476Z,47.41
2023-08-19T09:37:46.064Z,46.50
2023-08-19T09:40:22.438Z,48.70
2023-08-19T09:42:58.036Z,47.80
2023-08-19T09:45:30.601Z,49.04
2023-08-19T09:48:07.493Z,48.34
2023-08-19T09:50:46.351Z,48.84
2023-08-19T09:53:19.319Z,48.12
2023-08-19T09:55:51.788Z,48.75
2023-08-19T09:58:26.239Z,48.58
2023-08-19T10:00:58.777Z,47.95
2023-08-19T10:03:31.542Z,47.41
2023-08-19T10:06:05.489Z,47.18
2023-08-19T10:08:42.778Z,46.98
2023-08-19T10:11:17.489Z,47.33
2023-08-19T10:13:53.574Z,47.35
2023-08-19T10:16:26.873Z,48.07
2023-08-19T10:19:01.625Z,47.30
2023-08-19T10:21:36.330Z,48.16
2023-08-19T10:24:09.535Z,48.13
2023-08-19T10:26:42.025Z,48.45
2023-08-19T10:29:15.157Z,48.58
2023-08-19T10:31:47.765Z,47.97
2023-08-19T10:34:20.217Z,47.91
2023-08-19T10:37:09.615Z,47.79
2023-08-19T10:39:47.837Z,46.58
2023-08-19T10:42:27.132Z,47.27
2023-08-19T10:44:59.683Z,46.48
2023-08-19T10:47:32.328Z,45.98
2023-08-19T10:50:08.382Z,47.53
2023-08-19T10:52:58.427Z,47.58
2023-08-19T10:55:53.002Z,48.26
2023-08-19T10:58:26.237Z,49.21
2023-08-19T11:00:58.872Z,49.88
2023-08-19T11:03:31.850Z,50.34
2023-08-19T11:06:07.087Z,49.80
2023-08-19T11:08:43.874Z,49.84
2023-08-19T11:11:17.531Z,50.11
2023-08-19T11:13:50.084Z,51.42
2023-08-19T11:16:28.173Z,50.35
2023-08-19T11:19:02.856Z,51.55
2023-08-19T11:21:41.615Z,50.71
2023-08-19T11:24:14.878Z,51.45
2023-08-19T11:26:49.642Z,50.77
2023-08-19T11:29:22.169Z,51.00
2023-08-19T11:31:54.866Z,51.64
2023-08-19T11:34:31.513Z,52.70
2023-08-19T11:37:05.428Z,53.78
2023-08-19T11:39:38.122Z,54.12
2023-08-19T11:42:10.865Z,53.09
2023-08-19T11:44:44.373Z,52.89
2023-08-19T11:47:16.942Z,52.87
2023-08-19T11:49:49.612Z,52.99
2023-08-19T11:52:22.303Z,52.43
2023-08-19T11:55:02.573Z,52.13
2023-08-19T11:57:36.503Z,51.45
2023-08-19T12:00:16.489Z,51.96
2023-08-19T12:02:49.035Z,51.65
2023-08-19T12:05:27.181Z,50.87
2023-08-19T12:07:59.660Z,50.37
2023-08-19T12:10:41.708Z,50.32
2023-08-19T12:13:21.227Z,50.83
2023-08-19T12:15:54.933Z,50.80
2023-08-19T12:18:31.605Z,51.13
2023-08-19T12:21:04.483Z,50.33
2023-08-19T12:23:36.942Z,50.37
2023-08-19T12:26:09.617Z,50.30
2023-08-19T12:28:42.229Z,50.52
2023-08-19T12:31:14.749Z,50.28
2023-08-19T12:33:47.247Z,49.42
2023-08-19T12:36:20.177Z,49.47
2023-08-19T12:38:52.741Z,49.49
2023-08-19T12:41:25.278Z,49.72
2023-08-19T12:43:57.745Z,50.29
2023-08-19T12:46:33.431Z,50.07
2023-08-19T12:49:05.901Z,50.28
2023-08-19T12:51:38.556Z,50.01
2023-08-19T12:54:11.037Z,50.40
2023-08-19T12:56:43.472Z,49.82
2023-08-19T12:59:15.947Z,50.34
2023-08-19T13:01:48.423Z,50.20
2023-08-19T13:04:21.148Z,49.89
2023-08-19T13:06:53.662Z,49.95
2023-08-19T13:09:26.101Z,50.68
2023-08-19T13:11:58.559Z,51.04
2023-08-19T13:14:30.992Z,50.86
2023-08-19T13:17:03.483Z,50.99
2023-08-19T13:19:36.017Z,51.38
2023-08-19T13:22:08.773Z,51.20
2023-08-19T13:24:41.231Z,51.71
2023-08-19T13:27:13.847Z,51.32
2023-08-19T13:29:49.593Z,51.62
2023-08-19T13:32:22.118Z,51.77
2023-08-19T13:34:54.541Z,52.13
2023-08-19T13:37:27.025Z,51.88
2023-08-19T13:39:59.937Z,52.02
2023-08-19T13:42:33.181Z,52.48
2023-08-19T13:45:08.284Z,52.08
2023-08-19T13:47:40.868Z,50.54
2023-08-19T13:50:13.470Z,50.80
2023-08-19T13:52:48.405Z,51.17
2023-08-19T13:55:21.137Z,50.16
2023-08-19T13:57:54.713Z,50.66
2023-08-19T14:00:27.380Z,49.47
2023-08-19T14:03:00.006Z,49.65
2023-08-19T14:05:32.623Z,48.74
2023-08-19T14:08:05.281Z,49.21
2023-08-19T14:10:39.255Z,49.25
2023-08-19T14:13:12.083Z,48.53
2023-08-19T14:15:45.407Z,48.53
2023-08-19T14:18:17.904Z,46.67
2023-08-19T14:20:50.650Z,46.72
2023-08-19T14:23:23.191Z,45.99
2023-08-19T14:25:55.789Z,45.02
2023-08-19T14:28:28.271Z,44.88
2023-08-19T14:31:00.742Z,45.52
2023-08-19T14:33:35.243Z,44.41
2023-08-19T14:36:07.694Z,45.24
2023-08-19T14:38:40.147Z,45.16
2023-08-19T14:41:14.208Z,46.08
2023-08-19T14:43:46.666Z,45.67
2023-08-19T14:46:21.387Z,44.64
2023-08-19T14:48:54.649Z,44.34
2023-08-19T14:51:27.428Z,44.28
2023-08-19T14:53:59.882Z,42.54
2023-08-19T14:56:32.411Z,42.75
2023-08-19T14:59:05.058Z,43.32
2023-08-19T15:01:37.592Z,44.02
2023-08-19T15:04:10.490Z,42.90
2023-08-19T15:06:43.067Z,44.11
2023-08-19T15:09:15.641Z,43.03
2023-08-19T15:11:48.149Z,41.63
2023-08-19T15:14:20.622Z,41.97
2023-08-19T15:16:55.115Z,41.60
2023-08-19T15:19:27.672Z,41.75
2023-08-19T15:22:00.183Z,41.23
2023-08-19T15:24:32.695Z,42.15
2023-08-19T15:27:05.194Z,43.07
2023-08-19T15:29:37.945Z,43.31
2023-08-19T15:32:12.197Z,43.09
2023-08-19T15:34:44.882Z,42.72
2023-08-19T15:37:18.286Z,42.03
2023-08-19T15:39:50.831Z,41.58
2023-08-19T15:42:23.393Z,41.47
2023-08-19T15:44:55.821Z,41.43
2023-08-19T15:47:28.419Z,41.04
2023-08-19T15:50:00.866Z,40.74
2023-08-19T15:52:33.359Z,40.79
2023-08-19T15:55:06.091Z,42.01
2023-08-19T15:57:38.666Z,40.26
2023-08-19T16:00:15.496Z,41.32
2023-08-19T16:02:48.143Z,39.33
2023-08-19T16:05:20.722Z,40.36
2023-08-19T16:07:53.188Z,40.55
2023-08-19T16:10:25.803Z,41.20
2023-08-19T16:12:58.276Z,40.98
2023-08-19T16:15:30.844Z,41.55
2023-08-19T16:18:03.568Z,40.68
2023-08-19T16:20:36.027Z,41.47
2023-08-19T16:23:08.491Z,40.34
2023-08-19T16:25:43.040Z,40.07
2023-08-19T16:28:15.569Z,39.85
2023-08-19T16:30:48.032Z,39.91
2023-08-19T16:33:20.516Z,42.00
2023-08-19T16:35:56.248Z,41.99
2023-08-19T16:38:28.903Z,41.34
2023-08-19T16:41:01.927Z,41.01
2023-08-19T16:43:34.975Z,41.57
2023-08-19T16:46:07.403Z,41.58
2023-08-19T16:48:39.963Z,41.65
2023-08-19T16:51:12.462Z,41.34
2023-08-19T16:53:45.449Z,40.81
2023-08-19T16:56:17.900Z,40.49
2023-08-19T16:58:50.459Z,41.28
2023-08-19T17:01:22.947Z,40.83
2023-08-19T17:03:55.414Z,41.25
2023-08-19T17:06:27.891Z,41.32
2023-08-19T17:09:01.386Z,40.98
2023-08-19T17:11:33.860Z,41.32
2023-08-19T17:14:06.347Z,41.53
2023-08-19T17:16:41.052Z,41.30
2023-08-19T17:19:13.960Z,41.79
2023-08-19T17:21:46.571Z,43.05
2023-08-19T17:24:19.020Z,43.09
2023-08-19T17:26:51.654Z,43.32
2023-08-19T17:29:24.065Z,44.45
2023-08-19T17:31:56.572Z,43.86
2023-08-19T17:34:29.018Z,43.62
2023-08-19T17:37:01.512Z,44.47
2023-08-19T17:39:34.029Z,44.23
2023-08-19T17:42:06.662Z,44.45
2023-08-19T17:44:44.357Z,44.35
2023-08-19T17:47:16.869Z,44.41
2023-08-19T17:49:49.443Z,44.62
2023-08-19T17:52:21.928Z,45.52
2023-08-19T17:54:54.390Z,44.81
2023-08-19T17:57:26.918Z,44.55
2023-08-19T17:59:59.361Z,45.56
2023-08-19T18:02:32.095Z,45.57
2023-08-19T18:05:05.081Z,45.11
2023-08-19T18:07:37.881Z,45.46
2023-08-19T18:10:10.809Z,45.22
2023-08-19T18:12:43.264Z,46.07
2023-08-19T18:15:15.766Z,46.70
2023-08-19T18:17:48.325Z,46.83
2023-08-19T18:20:21.498Z,46.98
2023-08-19T18:22:53.979Z,47.77
2023-08-19T18:25:26.580Z,47.65
2023-08-19T18:27:59.151Z,47.78
2023-08-19T18:30:31.641Z,48.77
2023-08-19T18:33:04.194Z,48.83
2023-08-19T18:35:36.655Z,48.61
2023-08-19T18:38:09.129Z,49.18
2023-08-19T18:40:41.642Z,50.02
2023-08-19T18:43:14.212Z,50.18
2023-08-19T18:45:47.535Z,50.39
2023-08-19T18:48:20.148Z,50.68
2023-08-19T18:50:52.713Z,50.54
2023-08-19T18:53:25.194Z,50.91
2023-08-19T18:55:57.694Z,50.89
2023-08-19T18:58:30.181Z,51.16
2023-08-19T19:01:08.525Z,51.34
2023-08-19T19:03:41.431Z,51.91
2023-08-19T19:06:14.485Z,52.14
2023-08-19T19:08:46.996Z,52.22
2023-08-19T19:11:19.532Z,52.27
2023-08-19T19:13:52.069Z,52.92
2023-08-19T19:16:24.594Z,52.87
2023-08-19T19:18:57.584Z,53.22
2023-08-19T19:21:31.338Z,53.89
2023-08-19T19:24:03.994Z,53.99
2023-08-19T19:26:36.477Z,54.21
2023-08-19T19:29:08.956Z,54.45
2023-08-19T19:31:41.440Z,54.91
2023-08-19T19:34:14.766Z,55.19
2023-08-19T19:36:47.272Z,55.70
2023-08-19T19:39:19.866Z,55.80
2023-08-19T19:41:52.321Z,56.12
2023-08-19T19:44:24.845Z,56.48
2023-08-19T19:46:57.413Z,56.74
2023-08-19T19:49:30.041Z,56.83
2023-08-19T19:52:02.496Z,56.87
2023-08-19T19:54:36.258Z,56.80
2023-08-19T19:57:09.188Z,57.23
2023-08-19T19:59:41.676Z,57.42
2023-08-19T20:02:14.582Z,57.91
2023-08-19T20:04:47.117Z,57.87
2023-08-19T20:07:19.618Z,58.39
2023-08-19T20:09:52.072Z,58.24
2023-08-19T20:12:24.585Z,58.62
2023-08-19T20:14:57.844Z,58.36
2023-08-19T20:17:30.286Z,58.63
2023-08-19T20:20:02.904Z,58.73
2023-08-19T20:22:35.384Z,58.89
2023-08-19T20:25:07.979Z,58.72
2023-08-19T20:27:40.479Z,58.60
2023-08-19T20:30:13.212Z,58.69
2023-08-19T20:32:47.969Z,58.83
2023-08-19T20:35:20.767Z,58.92
2023-08-19T20:37:53.316Z,58.99
2023-08-19T20:40:25.870Z,59.38
2023-08-19T20:42:58.326Z,59.31
2023-08-19T20:45:30.857Z,59.42
2023-08-19T20:48:03.906Z,59.61
2023-08-19T20:50:37.166Z,59.52
2023-08-19T20:53:09.824Z,59.56
2023-08-19T20:55:42.243Z,59.96
2023-08-19T20:58:14.739Z,59.98
2023-08-19T21:00:47.267Z,60.08
2023-08-19T21:03:19.678Z,60.03
2023-08-19T21:05:52.402Z,59.65
2023-08-19T21:08:24.987Z,59.07
2023-08-19T21:10:59.176Z,59.23
2023-08-19T21:13:31.587Z,59.52
2023-08-19T21:16:04.271Z,59.45
2023-08-19T21:18:36.849Z,58.90
2023-08-19T21:21:09.308Z,58.35
2023-08-19T21:23:41.887Z,57.91
2023-08-19T21:26:14.330Z,57.67
2023-08-19T21:28:46.770Z,57.53
2023-08-19T21:31:19.293Z,57.25
2023-08-19T21:33:53.437Z,57.08
2023-08-19T21:36:27.004Z,56.78
2023-08-19T21:38:59.426Z,56.71
2023-08-19T21:41:31.863Z,56.35
2023-08-19T21:44:04.690Z,56.50
2023-08-19T21:46:37.108Z,56.49
2023-08-19T21:49:10.247Z,56.27
2023-08-19T21:51:42.719Z,55.92
2023-08-19T21:54:15.216Z,55.53
2023-08-19T21:56:47.715Z,55.79
2023-08-19T21:59:20.256Z,55.08
2023-08-19T22:01:52.739Z,54.89
2023-08-19T22:04:25.217Z,55.00
2023-08-19T22:06:59.003Z,55.32
2023-08-19T22:09:34.313Z,55.41
2023-08-19T22:12:07.649Z,55.31
2023-08-19T22:14:40.211Z,55.34
2023-08-19T22:17:12.631Z,55.73
2023-08-19T22:19:45.389Z,55.31
2023-08-19T22:22:17.920Z,55.19
2023-08-19T22:24:50.393Z,55.01
2023-08-19T22:27:22.977Z,54.86
2023-08-19T22:29:55.448Z,55.08
2023-08-19T22:32:27.896Z,55.30
2023-08-19T22:35:00.757Z,55.11
2023-08-19T22:37:35.075Z,54.96
2023-08-19T22:40:08.393Z,54.63
2023-08-19T22:42:41.066Z,54.43
2023-08-19T22:45:15.000Z,54.18
2023-08-19T22:47:47.433Z,54.46
2023-08-19T22:50:19.868Z,54.39
2023-08-19T22:52:52.357Z,54.12
2023-08-19T22:55:24.873Z,53.95
2023-08-19T22:57:57.416Z,54.06
2023-08-19T23:00:29.918Z,54.01
2023-08-19T23:03:02.569Z,54.43
2023-08-19T23:05:35.323Z,55.88
2023-08-19T23:08:07.774Z,56.51
2023-08-19T23:10:43.394Z,56.94
2023-08-19T23:13:15.883Z,56.92
2023-08-19T23:15:48.359Z,56.99
2023-08-19T23:18:20.831Z,57.43
2023-08-19T23:20:53.321Z,57.66
2023-08-19T23:23:25.828Z,57.83
2023-08-19T23:25:58.243Z,57.84
2023-08-19T23:28:30.762Z,57.78
2023-08-19T23:31:03.563Z,57.84
2023-08-19T23:33:36.073Z,57.90
2023-08-19T23:36:08.658Z,58.18
2023-08-19T23:38:43.509Z,58.18
2023-08-19T23:41:16.096Z,58.16
2023-08-19T23:43:49.229Z,58.48
2023-08-19T23:46:22.116Z,58.31
2023-08-19T23:48:54.970Z,58.44
2023-08-19T23:51:32.470Z,58.47
2023-08-19T23:54:05.876Z,58.52
2023-08-19T23:56:38.659Z,58.59
2023-08-19T23:59:11.462Z,58.74
